sensor_id;sensor_type;location;lat;lon;timestamp;pressure;altitude;pressure_sealevel;temperature;humidity
41688;BME280;27371;42.686;23.362;2023-07-29T00:02:04;167237.06;;;19.29;53.59
41688;BME280;27371;42.686;23.362;2023-07-29T00:04:30;167265.28;;;19.40;53.91
41688;BME280;27371;42.686;23.362;2023-07-29T00:06:55;167247.84;;;19.33;54.14
41688;BME280;27371;42.686;23.362;2023-07-29T00:09:21;167179.34;;;19.07;54.67
41688;BME280;27371;42.686;23.362;2023-07-29T00:11:46;167179.34;;;19.07;54.94
41688;BME280;27371;42.686;23.362;2023-07-29T00:14:12;167187.38;;;19.10;55.40
41688;BME280;27371;42.686;23.362;2023-07-29T00:16:37;167179.34;;;19.07;55.31
41688;BME280;27371;42.686;23.362;2023-07-29T00:19:03;167206.19;;;19.17;55.51
41688;BME280;27371;42.686;23.362;2023-07-29T00:21:29;167151.13;;;18.96;55.16
41688;BME280;27371;42.686;23.362;2023-07-29T00:23:54;167152.50;;;18.97;55.48
41688;BME280;27371;42.686;23.362;2023-07-29T00:26:22;167132.38;;;18.89;55.97
41688;BME280;27371;42.686;23.362;2023-07-29T00:28:48;167032.97;;;18.51;56.33
41688;BME280;27371;42.686;23.362;2023-07-29T00:31:13;167090.69;;;18.73;56.57
41688;BME280;27371;42.686;23.362;2023-07-29T00:33:39;167092.03;;;18.74;56.75
41688;BME280;27371;42.686;23.362;2023-07-29T00:36:04;167082.63;;;18.70;56.69
41688;BME280;27371;42.686;23.362;2023-07-29T00:38:30;167086.63;;;18.72;57.00
41688;BME280;27371;42.686;23.362;2023-07-29T00:41:00;167082.63;;;18.70;57.00
41688;BME280;27371;42.686;23.362;2023-07-29T00:43:27;167101.44;;;18.77;57.37
41688;BME280;27371;42.686;23.362;2023-07-29T00:45:53;167102.84;;;18.78;57.56
41688;BME280;27371;42.686;23.362;2023-07-29T00:48:19;167098.78;;;18.76;57.21
41688;BME280;27371;42.686;23.362;2023-07-29T00:50:45;167034.28;;;18.52;57.55
41688;BME280;27371;42.686;23.362;2023-07-29T00:53:10;167057.09;;;18.60;57.46
41688;BME280;27371;42.686;23.362;2023-07-29T00:55:36;167059.81;;;18.61;57.17
41688;BME280;27371;42.686;23.362;2023-07-29T00:58:02;167101.44;;;18.77;56.80
41688;BME280;27371;42.686;23.362;2023-07-29T01:00:28;167079.91;;;18.69;56.80
41688;BME280;27371;42.686;23.362;2023-07-29T01:02:53;167078.59;;;18.68;57.00
41688;BME280;27371;42.686;23.362;2023-07-29T01:05:20;167100.13;;;18.77;57.17
41688;BME280;27371;42.686;23.362;2023-07-29T01:16:11;167094.78;;;18.75;56.69
41688;BME280;27371;42.686;23.362;2023-07-29T01:18:40;167077.25;;;18.68;56.92
41688;BME280;27371;42.686;23.362;2023-07-29T01:21:09;167090.69;;;18.73;57.25
41688;BME280;27371;42.686;23.362;2023-07-29T01:23:36;167096.13;;;18.75;57.52
41688;BME280;27371;42.686;23.362;2023-07-29T01:26:02;167083.97;;;18.70;57.10
41688;BME280;27371;42.686;23.362;2023-07-29T01:28:29;167077.25;;;18.68;57.18
41688;BME280;27371;42.686;23.362;2023-07-29T01:31:38;166987.34;;;18.34;57.74
41688;BME280;27371;42.686;23.362;2023-07-29T01:34:09;167008.81;;;18.42;58.17
41688;BME280;27371;42.686;23.362;2023-07-29T01:36:39;166977.91;;;18.30;58.34
41688;BME280;27371;42.686;23.362;2023-07-29T01:39:07;166973.91;;;18.29;58.63
41688;BME280;27371;42.686;23.362;2023-07-29T01:41:34;166987.34;;;18.34;58.55
41688;BME280;27371;42.686;23.362;2023-07-29T01:44:00;166987.34;;;18.34;58.58
41688;BME280;27371;42.686;23.362;2023-07-29T01:46:26;166971.19;;;18.28;58.70
41688;BME280;27371;42.686;23.362;2023-07-29T01:48:52;166952.44;;;18.20;59.01
41688;BME280;27371;42.686;23.362;2023-07-29T01:51:17;166952.44;;;18.20;58.82
41688;BME280;27371;42.686;23.362;2023-07-29T01:53:43;166947.06;;;18.18;59.16
41688;BME280;27371;42.686;23.362;2023-07-29T01:56:09;166896.06;;;17.99;59.04
41688;BME280;27371;42.686;23.362;2023-07-29T01:58:34;166897.41;;;17.99;58.99
41688;BME280;27371;42.686;23.362;2023-07-29T02:01:00;166944.41;;;18.17;59.50
41688;BME280;27371;42.686;23.362;2023-07-29T02:03:25;166918.88;;;18.08;59.39
41688;BME280;27371;42.686;23.362;2023-07-29T02:05:51;166912.16;;;18.05;59.03
41688;BME280;27371;42.686;23.362;2023-07-29T02:08:16;166945.72;;;18.18;58.92
41688;BME280;27371;42.686;23.362;2023-07-29T02:10:42;166943.06;;;18.17;58.58
41688;BME280;27371;42.686;23.362;2023-07-29T02:13:10;166917.53;;;18.07;58.72
41688;BME280;27371;42.686;23.362;2023-07-29T02:15:36;166937.69;;;18.15;58.91
41688;BME280;27371;42.686;23.362;2023-07-29T02:18:01;166932.28;;;18.13;58.84
41688;BME280;27371;42.686;23.362;2023-07-29T02:20:28;166916.19;;;18.07;58.87
41688;BME280;27371;42.686;23.362;2023-07-29T02:22:54;166873.25;;;17.90;59.96
41688;BME280;27371;42.686;23.362;2023-07-29T02:25:19;166885.34;;;17.95;60.30
41688;BME280;27371;42.686;23.362;2023-07-29T02:27:45;166847.75;;;17.80;60.21
41688;BME280;27371;42.686;23.362;2023-07-29T02:30:11;166784.66;;;17.56;60.29
41688;BME280;27371;42.686;23.362;2023-07-29T02:32:37;166874.59;;;17.91;60.12
41688;BME280;27371;42.686;23.362;2023-07-29T02:35:03;166855.84;;;17.84;60.21
41688;BME280;27371;42.686;23.362;2023-07-29T02:37:30;166831.59;;;17.74;60.49
41688;BME280;27371;42.686;23.362;2023-07-29T02:39:55;166811.47;;;17.67;60.70
41688;BME280;27371;42.686;23.362;2023-07-29T02:42:21;166773.91;;;17.52;61.00
41688;BME280;27371;42.686;23.362;2023-07-29T02:44:46;166799.44;;;17.62;61.08
41688;BME280;27371;42.686;23.362;2023-07-29T02:47:12;166795.38;;;17.61;61.36
41688;BME280;27371;42.686;23.362;2023-07-29T02:49:37;166771.25;;;17.51;61.62
41688;BME280;27371;42.686;23.362;2023-07-29T02:52:03;166783.28;;;17.56;61.65
41688;BME280;27371;42.686;23.362;2023-07-29T02:54:29;166761.88;;;17.48;61.91
41688;BME280;27371;42.686;23.362;2023-07-29T02:56:54;166768.53;;;17.50;61.77
41688;BME280;27371;42.686;23.362;2023-07-29T02:59:20;166767.19;;;17.50;61.92
41688;BME280;27371;42.686;23.362;2023-07-29T03:01:45;166760.47;;;17.47;61.70
41688;BME280;27371;42.686;23.362;2023-07-29T03:04:11;166763.19;;;17.48;61.90
41688;BME280;27371;42.686;23.362;2023-07-29T03:06:38;166747.06;;;17.42;62.42
41688;BME280;27371;42.686;23.362;2023-07-29T03:09:03;166712.22;;;17.29;63.02
41688;BME280;27371;42.686;23.362;2023-07-29T03:11:31;166634.41;;;16.99;63.34
41688;BME280;27371;42.686;23.362;2023-07-29T03:13:57;166610.28;;;16.90;63.67
41688;BME280;27371;42.686;23.362;2023-07-29T03:16:23;166638.41;;;17.01;63.99
41688;BME280;27371;42.686;23.362;2023-07-29T03:18:49;166631.75;;;16.98;64.18
41688;BME280;27371;42.686;23.362;2023-07-29T03:21:15;166623.66;;;16.95;64.35
41688;BME280;27371;42.686;23.362;2023-07-29T03:23:40;166666.59;;;17.11;64.32
41688;BME280;27371;42.686;23.362;2023-07-29T03:26:06;166690.75;;;17.21;63.91
41688;BME280;27371;42.686;23.362;2023-07-29T03:28:39;166709.50;;;17.28;63.91
41688;BME280;27371;42.686;23.362;2023-07-29T03:31:05;166771.25;;;17.51;63.50
41688;BME280;27371;42.686;23.362;2023-07-29T03:33:31;166878.63;;;17.92;62.27
41688;BME280;27371;42.686;23.362;2023-07-29T03:35:56;166986.00;;;18.33;60.57
41688;BME280;27371;42.686;23.362;2023-07-29T03:38:22;167083.97;;;18.70;59.60
41688;BME280;27371;42.686;23.362;2023-07-29T03:40:48;167010.16;;;18.42;58.60
41688;BME280;27371;42.686;23.362;2023-07-29T03:43:13;167053.09;;;18.59;58.61
41688;BME280;27371;42.686;23.362;2023-07-29T03:45:40;167032.97;;;18.51;58.36
41688;BME280;27371;42.686;23.362;2023-07-29T03:48:05;166965.88;;;18.25;58.67
41688;BME280;27371;42.686;23.362;2023-07-29T03:50:35;166920.22;;;18.08;59.32
41688;BME280;27371;42.686;23.362;2023-07-29T03:53:02;167039.69;;;18.54;59.61
41688;BME280;27371;42.686;23.362;2023-07-29T03:55:27;167148.47;;;18.95;58.87
41688;BME280;27371;42.686;23.362;2023-07-29T03:57:56;167340.50;;;19.68;56.78
41688;BME280;27371;42.686;23.362;2023-07-29T04:00:21;167446.66;;;20.09;55.02
41688;BME280;27371;42.686;23.362;2023-07-29T04:02:47;167595.84;;;20.65;53.56
41688;BME280;27371;42.686;23.362;2023-07-29T04:05:12;167675.13;;;20.96;52.19
41688;BME280;27371;42.686;23.362;2023-07-29T04:07:38;167774.56;;;21.33;50.95
41688;BME280;27371;42.686;23.362;2023-07-29T04:10:05;167926.53;;;21.91;49.74
41688;BME280;27371;42.686;23.362;2023-07-29T04:12:31;168113.50;;;22.62;47.54
41688;BME280;27371;42.686;23.362;2023-07-29T04:14:56;168186.16;;;22.90;45.96
41688;BME280;27371;42.686;23.362;2023-07-29T04:17:22;168246.78;;;23.13;44.99
41688;BME280;27371;42.686;23.362;2023-07-29T04:19:47;168305.97;;;23.36;44.75
41688;BME280;27371;42.686;23.362;2023-07-29T04:22:15;168381.28;;;23.64;44.04
41688;BME280;27371;42.686;23.362;2023-07-29T04:24:41;168468.81;;;23.97;43.61
41688;BME280;27371;42.686;23.362;2023-07-29T04:27:06;168544.22;;;24.26;42.35
41688;BME280;27371;42.686;23.362;2023-07-29T04:29:32;168658.66;;;24.70;41.58
41688;BME280;27371;42.686;23.362;2023-07-29T04:31:57;168721.94;;;24.94;40.98
41688;BME280;27371;42.686;23.362;2023-07-29T04:34:23;168844.53;;;25.40;40.09
41688;BME280;27371;42.686;23.362;2023-07-29T04:36:48;168959.09;;;25.84;39.26
41688;BME280;27371;42.686;23.362;2023-07-29T04:39:14;169004.88;;;26.01;38.26
41688;BME280;27371;42.686;23.362;2023-07-29T04:41:40;169104.56;;;26.39;37.27
41688;BME280;27371;42.686;23.362;2023-07-29T04:44:06;169170.63;;;26.64;36.64
41688;BME280;27371;42.686;23.362;2023-07-29T04:46:32;169189.47;;;26.71;36.69
41688;BME280;27371;42.686;23.362;2023-07-29T04:48:57;169239.34;;;26.90;36.52
41688;BME280;27371;42.686;23.362;2023-07-29T04:51:23;169263.63;;;26.99;35.65
41688;BME280;27371;42.686;23.362;2023-07-29T04:53:49;169212.41;;;26.80;35.88
41688;BME280;27371;42.686;23.362;2023-07-29T04:56:15;169304.03;;;27.15;34.86
41688;BME280;27371;42.686;23.362;2023-07-29T04:58:40;169355.28;;;27.34;35.13
41688;BME280;27371;42.686;23.362;2023-07-29T05:01:06;169366.09;;;27.38;34.77
41688;BME280;27371;42.686;23.362;2023-07-29T05:03:31;169405.16;;;27.53;34.42
41688;BME280;27371;42.686;23.362;2023-07-29T05:05:58;169486.09;;;27.84;33.63
41688;BME280;27371;42.686;23.362;2023-07-29T05:08:26;169446.97;;;27.69;34.25
41688;BME280;27371;42.686;23.362;2023-07-29T05:10:52;169181.41;;;26.68;35.22
41688;BME280;27371;42.686;23.362;2023-07-29T05:13:18;168977.91;;;25.91;36.92
41688;BME280;27371;42.686;23.362;2023-07-29T05:15:43;168835.13;;;25.37;38.08
41688;BME280;27371;42.686;23.362;2023-07-29T05:18:09;168961.75;;;25.85;37.59
41688;BME280;27371;42.686;23.362;2023-07-29T05:20:34;169077.59;;;26.29;36.57
41688;BME280;27371;42.686;23.362;2023-07-29T05:23:00;169184.13;;;26.69;36.23
41688;BME280;27371;42.686;23.362;2023-07-29T05:25:26;169171.97;;;26.64;36.02
41688;BME280;27371;42.686;23.362;2023-07-29T05:27:51;169114.00;;;26.42;36.22
41688;BME280;27371;42.686;23.362;2023-07-29T05:30:17;169130.16;;;26.49;36.27
41688;BME280;27371;42.686;23.362;2023-07-29T05:32:42;169042.56;;;26.15;36.62
41688;BME280;27371;42.686;23.362;2023-07-29T05:35:08;168863.41;;;25.47;38.03
41688;BME280;27371;42.686;23.362;2023-07-29T05:37:33;168942.84;;;25.77;37.59
41688;BME280;27371;42.686;23.362;2023-07-29T05:39:59;168946.91;;;25.79;38.13
41688;BME280;27371;42.686;23.362;2023-07-29T05:42:24;169031.81;;;26.11;37.52
41688;BME280;27371;42.686;23.362;2023-07-29T05:44:50;169026.44;;;26.09;37.68
41688;BME280;27371;42.686;23.362;2023-07-29T05:47:15;169025.09;;;26.09;38.19
41688;BME280;27371;42.686;23.362;2023-07-29T05:49:41;169072.22;;;26.27;38.11
41688;BME280;27371;42.686;23.362;2023-07-29T05:52:07;169139.66;;;26.52;37.52
41688;BME280;27371;42.686;23.362;2023-07-29T05:54:33;169083.00;;;26.31;37.60
41688;BME280;27371;42.686;23.362;2023-07-29T05:56:58;169057.41;;;26.21;37.96
41688;BME280;27371;42.686;23.362;2023-07-29T05:59:24;169095.09;;;26.35;37.64
41688;BME280;27371;42.686;23.362;2023-07-29T06:01:49;169093.78;;;26.35;37.46
41688;BME280;27371;42.686;23.362;2023-07-29T06:04:15;169163.91;;;26.61;37.10
41688;BME280;27371;42.686;23.362;2023-07-29T06:06:40;169209.69;;;26.79;37.00
41688;BME280;27371;42.686;23.362;2023-07-29T06:09:06;169182.72;;;26.69;36.81
41688;BME280;27371;42.686;23.362;2023-07-29T06:11:31;169188.13;;;26.71;37.01
41688;BME280;27371;42.686;23.362;2023-07-29T06:13:57;169205.69;;;26.77;36.73
41688;BME280;27371;42.686;23.362;2023-07-29T06:16:22;169212.41;;;26.80;36.48
41688;BME280;27371;42.686;23.362;2023-07-29T06:18:48;169221.84;;;26.83;36.10
41688;BME280;27371;42.686;23.362;2023-07-29T06:21:14;169208.34;;;26.78;36.85
41688;BME280;27371;42.686;23.362;2023-07-29T06:23:43;169158.50;;;26.59;37.00
41688;BME280;27371;42.686;23.362;2023-07-29T06:26:09;169163.91;;;26.61;36.72
41688;BME280;27371;42.686;23.362;2023-07-29T06:28:34;169216.44;;;26.81;37.02
41688;BME280;27371;42.686;23.362;2023-07-29T06:31:00;169231.25;;;26.87;36.69
41688;BME280;27371;42.686;23.362;2023-07-29T06:33:26;169321.63;;;27.21;36.04
41688;BME280;27371;42.686;23.362;2023-07-29T06:35:51;169347.22;;;27.31;36.02
41688;BME280;27371;42.686;23.362;2023-07-29T06:38:16;169347.22;;;27.31;36.14
41688;BME280;27371;42.686;23.362;2023-07-29T06:40:47;169321.63;;;27.21;36.35
41688;BME280;27371;42.686;23.362;2023-07-29T06:43:15;169309.50;;;27.17;36.14
41688;BME280;27371;42.686;23.362;2023-07-29T06:45:41;169228.59;;;26.86;36.77
41688;BME280;27371;42.686;23.362;2023-07-29T06:48:06;169224.53;;;26.84;36.87
41688;BME280;27371;42.686;23.362;2023-07-29T06:50:32;169231.25;;;26.87;36.92
41688;BME280;27371;42.686;23.362;2023-07-29T06:52:57;169238.00;;;26.90;37.25
41688;BME280;27371;42.686;23.362;2023-07-29T06:55:23;169252.81;;;26.95;36.71
41688;BME280;27371;42.686;23.362;2023-07-29T06:57:48;169235.31;;;26.88;36.68
41688;BME280;27371;42.686;23.362;2023-07-29T07:00:14;169336.47;;;27.27;36.32
41688;BME280;27371;42.686;23.362;2023-07-29T07:02:40;169298.63;;;27.13;36.48
41688;BME280;27371;42.686;23.362;2023-07-29T07:05:05;169282.47;;;27.06;36.38
41688;BME280;27371;42.686;23.362;2023-07-29T07:07:31;169262.25;;;26.99;36.67
41688;BME280;27371;42.686;23.362;2023-07-29T07:09:56;169242.06;;;26.91;37.46
41688;BME280;27371;42.686;23.362;2023-07-29T07:12:22;169238.00;;;26.90;37.54
41688;BME280;27371;42.686;23.362;2023-07-29T07:14:47;169277.06;;;27.04;36.99
41688;BME280;27371;42.686;23.362;2023-07-29T07:17:13;169331.06;;;27.25;36.59
41688;BME280;27371;42.686;23.362;2023-07-29T07:19:38;169351.28;;;27.33;36.02
41688;BME280;27371;42.686;23.362;2023-07-29T07:22:04;169372.84;;;27.41;36.19
41688;BME280;27371;42.686;23.362;2023-07-29T07:24:29;169391.69;;;27.48;36.16
41688;BME280;27371;42.686;23.362;2023-07-29T07:26:55;169411.91;;;27.56;35.88
41688;BME280;27371;42.686;23.362;2023-07-29T07:29:21;169426.75;;;27.61;35.60
41688;BME280;27371;42.686;23.362;2023-07-29T07:31:53;169467.19;;;27.76;35.58
41688;BME280;27371;42.686;23.362;2023-07-29T07:34:22;169531.97;;;28.01;35.06
41688;BME280;27371;42.686;23.362;2023-07-29T07:36:48;169537.31;;;28.03;35.14
41688;BME280;27371;42.686;23.362;2023-07-29T07:39:14;169587.22;;;28.22;34.38
41688;BME280;27371;42.686;23.362;2023-07-29T07:41:40;169580.47;;;28.19;34.43
41688;BME280;27371;42.686;23.362;2023-07-29T07:44:06;169561.63;;;28.12;34.31
41688;BME280;27371;42.686;23.362;2023-07-29T07:46:31;169546.78;;;28.07;34.23
41688;BME280;27371;42.686;23.362;2023-07-29T07:48:57;169610.13;;;28.31;34.37
41688;BME280;27371;42.686;23.362;2023-07-29T07:51:22;169565.66;;;28.14;34.07
41688;BME280;27371;42.686;23.362;2023-07-29T07:53:48;169521.16;;;27.97;34.45
41688;BME280;27371;42.686;23.362;2023-07-29T07:56:13;169541.41;;;28.05;34.09
41688;BME280;27371;42.686;23.362;2023-07-29T07:58:40;169536.00;;;28.03;33.82
41688;BME280;27371;42.686;23.362;2023-07-29T08:01:07;169585.88;;;28.22;33.98
41688;BME280;27371;42.686;23.362;2023-07-29T08:03:33;169626.34;;;28.37;33.46
41688;BME280;27371;42.686;23.362;2023-07-29T08:05:59;169642.56;;;28.43;33.62
41688;BME280;27371;42.686;23.362;2023-07-29T08:08:27;169718.06;;;28.72;33.42
41688;BME280;27371;42.686;23.362;2023-07-29T08:10:56;169792.22;;;29.00;32.59
41688;BME280;27371;42.686;23.362;2023-07-29T08:13:23;169745.06;;;28.82;32.63
41688;BME280;27371;42.686;23.362;2023-07-29T08:15:50;169757.22;;;28.86;32.34
41688;BME280;27371;42.686;23.362;2023-07-29T08:18:16;169797.66;;;29.02;32.29
41688;BME280;27371;42.686;23.362;2023-07-29T08:21:00;169797.66;;;29.02;32.27
41688;BME280;27371;42.686;23.362;2023-07-29T08:23:29;169773.38;;;28.93;32.25
41688;BME280;27371;42.686;23.362;2023-07-29T08:26:00;169724.81;;;28.74;31.95
41688;BME280;27371;42.686;23.362;2023-07-29T08:28:27;169790.91;;;28.99;31.75
41688;BME280;27371;42.686;23.362;2023-07-29T08:30:53;169809.84;;;29.06;31.15
41688;BME280;27371;42.686;23.362;2023-07-29T08:33:19;169847.59;;;29.21;31.24
41688;BME280;27371;42.686;23.362;2023-07-29T08:35:44;169870.53;;;29.29;31.04
41688;BME280;27371;42.686;23.362;2023-07-29T08:38:10;169890.78;;;29.37;30.51
41688;BME280;27371;42.686;23.362;2023-07-29T08:40:37;169928.53;;;29.51;29.78
41688;BME280;27371;42.686;23.362;2023-07-29T08:43:07;169896.19;;;29.39;29.53
41688;BME280;27371;42.686;23.362;2023-07-29T08:45:36;169821.97;;;29.11;30.38
41688;BME280;27371;42.686;23.362;2023-07-29T08:48:07;169811.19;;;29.07;29.48
41688;BME280;27371;42.686;23.362;2023-07-29T08:50:35;169836.78;;;29.17;30.06
41688;BME280;27371;42.686;23.362;2023-07-29T08:53:03;169843.53;;;29.19;30.10
41688;BME280;27371;42.686;23.362;2023-07-29T08:55:29;169885.38;;;29.35;30.86
41688;BME280;27371;42.686;23.362;2023-07-29T08:57:55;169894.78;;;29.39;30.42
41688;BME280;27371;42.686;23.362;2023-07-29T09:00:21;169939.34;;;29.56;29.88
41688;BME280;27371;42.686;23.362;2023-07-29T09:02:47;169951.47;;;29.60;29.98
41688;BME280;27371;42.686;23.362;2023-07-29T09:05:13;169997.41;;;29.78;29.32
41688;BME280;27371;42.686;23.362;2023-07-29T09:07:39;170009.53;;;29.82;28.54
41688;BME280;27371;42.686;23.362;2023-07-29T09:10:08;170001.44;;;29.79;27.70
41688;BME280;27371;42.686;23.362;2023-07-29T09:12:36;169997.41;;;29.78;27.65
41688;BME280;27371;42.686;23.362;2023-07-29T09:15:01;169987.94;;;29.74;27.54
41688;BME280;27371;42.686;23.362;2023-07-29T09:17:33;169990.66;;;29.75;27.88
41688;BME280;27371;42.686;23.362;2023-07-29T09:19:59;169969.09;;;29.67;27.12
41688;BME280;27371;42.686;23.362;2023-07-29T09:22:26;169989.28;;;29.74;26.60
41688;BME280;27371;42.686;23.362;2023-07-29T09:24:52;169989.28;;;29.74;26.57
41688;BME280;27371;42.686;23.362;2023-07-29T09:27:28;170074.28;;;30.07;26.80
41688;BME280;27371;42.686;23.362;2023-07-29T09:29:55;170137.78;;;30.31;26.51
41688;BME280;27371;42.686;23.362;2023-07-29T09:32:22;170189.06;;;30.50;25.99
41688;BME280;27371;42.686;23.362;2023-07-29T09:34:48;170172.88;;;30.44;25.96
41688;BME280;27371;42.686;23.362;2023-07-29T09:37:21;170179.63;;;30.47;25.38
41688;BME280;27371;42.686;23.362;2023-07-29T09:39:47;170205.25;;;30.56;24.39
41688;BME280;27371;42.686;23.362;2023-07-29T09:42:21;170175.56;;;30.45;24.64
41688;BME280;27371;42.686;23.362;2023-07-29T09:44:48;170189.06;;;30.50;24.95
41688;BME280;27371;42.686;23.362;2023-07-29T09:47:25;170228.19;;;30.65;25.02
41688;BME280;27371;42.686;23.362;2023-07-29T09:49:51;170209.31;;;30.58;24.79
41688;BME280;27371;42.686;23.362;2023-07-29T09:52:23;170209.31;;;30.58;24.76
41688;BME280;27371;42.686;23.362;2023-07-29T09:54:49;170228.19;;;30.65;25.28
41688;BME280;27371;42.686;23.362;2023-07-29T09:57:18;170236.25;;;30.68;25.21
41688;BME280;27371;42.686;23.362;2023-07-29T09:59:53;170212.00;;;30.59;25.18
41688;BME280;27371;42.686;23.362;2023-07-29T10:02:20;170228.19;;;30.65;25.06
41688;BME280;27371;42.686;23.362;2023-07-29T10:04:46;170232.25;;;30.67;24.73
41688;BME280;27371;42.686;23.362;2023-07-29T10:07:12;170225.50;;;30.64;24.94
41688;BME280;27371;42.686;23.362;2023-07-29T10:09:39;170186.38;;;30.49;25.02
41688;BME280;27371;42.686;23.362;2023-07-29T10:12:06;170128.34;;;30.27;25.00
41688;BME280;27371;42.686;23.362;2023-07-29T10:14:32;170071.63;;;30.06;25.53
41688;BME280;27371;42.686;23.362;2023-07-29T10:16:58;170105.31;;;30.18;25.72
41688;BME280;27371;42.686;23.362;2023-07-29T10:19:25;170106.69;;;30.19;25.12
41688;BME280;27371;42.686;23.362;2023-07-29T10:21:55;170072.94;;;30.06;25.39
41688;BME280;27371;42.686;23.362;2023-07-29T10:24:24;170059.47;;;30.01;25.54
41688;BME280;27371;42.686;23.362;2023-07-29T10:26:59;170110.72;;;30.21;25.50
41688;BME280;27371;42.686;23.362;2023-07-29T10:29:30;170099.97;;;30.16;25.54
41688;BME280;27371;42.686;23.362;2023-07-29T10:32:00;170186.38;;;30.49;25.43
41688;BME280;27371;42.686;23.362;2023-07-29T10:34:27;170162.06;;;30.40;24.98
41688;BME280;27371;42.686;23.362;2023-07-29T10:36:53;170220.09;;;30.62;25.08
41688;BME280;27371;42.686;23.362;2023-07-29T10:39:19;170234.94;;;30.68;24.91
41688;BME280;27371;42.686;23.362;2023-07-29T10:41:58;170278.16;;;30.84;25.03
41688;BME280;27371;42.686;23.362;2023-07-29T10:47:34;170299.78;;;30.92;24.82
41688;BME280;27371;42.686;23.362;2023-07-29T10:49:59;170297.09;;;30.91;24.66
41688;BME280;27371;42.686;23.362;2023-07-29T10:52:40;170276.81;;;30.83;24.73
41688;BME280;27371;42.686;23.362;2023-07-29T10:55:33;170345.63;;;31.10;24.48
41688;BME280;27371;42.686;23.362;2023-07-29T10:58:06;170311.94;;;30.97;24.41
41688;BME280;27371;42.686;23.362;2023-07-29T11:00:32;170279.50;;;30.84;23.97
41688;BME280;27371;42.686;23.362;2023-07-29T11:03:16;170274.16;;;30.82;24.20
41688;BME280;27371;42.686;23.362;2023-07-29T11:08:27;170357.81;;;31.14;23.64
41688;BME280;27371;42.686;23.362;2023-07-29T11:11:07;170361.88;;;31.16;23.41
41688;BME280;27371;42.686;23.362;2023-07-29T11:13:34;170380.75;;;31.23;23.51
41688;BME280;27371;42.686;23.362;2023-07-29T11:16:01;170388.84;;;31.26;23.94
41688;BME280;27371;42.686;23.362;2023-07-29T11:18:34;170452.34;;;31.50;23.56
41688;BME280;27371;42.686;23.362;2023-07-29T11:21:01;170440.19;;;31.45;22.99
41688;BME280;27371;42.686;23.362;2023-07-29T11:23:32;170518.50;;;31.75;23.09
41688;BME280;27371;42.686;23.362;2023-07-29T11:25:58;170491.50;;;31.65;23.15
41688;BME280;27371;42.686;23.362;2023-07-29T11:28:24;170473.97;;;31.58;22.80
41688;BME280;27371;42.686;23.362;2023-07-29T11:30:50;170538.78;;;31.83;22.31
41688;BME280;27371;42.686;23.362;2023-07-29T11:33:25;170532.00;;;31.80;22.35
41688;BME280;27371;42.686;23.362;2023-07-29T11:35:51;170545.53;;;31.85;22.28
41688;BME280;27371;42.686;23.362;2023-07-29T11:38:19;170536.09;;;31.82;21.93
41688;BME280;27371;42.686;23.362;2023-07-29T11:40:56;170526.59;;;31.78;22.14
41688;BME280;27371;42.686;23.362;2023-07-29T11:43:21;170486.13;;;31.63;22.72
41688;BME280;27371;42.686;23.362;2023-07-29T11:45:47;170515.81;;;31.74;22.46
41688;BME280;27371;42.686;23.362;2023-07-29T11:48:12;170541.44;;;31.84;22.95
41688;BME280;27371;42.686;23.362;2023-07-29T11:50:38;170532.00;;;31.80;21.62
41688;BME280;27371;42.686;23.362;2023-07-29T11:53:04;170533.34;;;31.81;21.77
41688;BME280;27371;42.686;23.362;2023-07-29T11:55:30;170557.69;;;31.90;21.98
41688;BME280;27371;42.686;23.362;2023-07-29T11:57:56;170580.69;;;31.99;21.75
41688;BME280;27371;42.686;23.362;2023-07-29T12:00:22;170595.53;;;32.04;21.98
41688;BME280;27371;42.686;23.362;2023-07-29T12:02:48;170622.50;;;32.14;21.96
41688;BME280;27371;42.686;23.362;2023-07-29T12:05:14;170640.09;;;32.21;22.07
41688;BME280;27371;42.686;23.362;2023-07-29T12:07:42;170614.41;;;32.11;21.97
41688;BME280;27371;42.686;23.362;2023-07-29T12:10:08;170618.50;;;32.13;21.65
41688;BME280;27371;42.686;23.362;2023-07-29T12:12:44;170615.81;;;32.12;21.82
41688;BME280;27371;42.686;23.362;2023-07-29T12:15:09;170587.44;;;32.01;21.58
41688;BME280;27371;42.686;23.362;2023-07-29T12:17:39;170571.19;;;31.95;22.15
41688;BME280;27371;42.686;23.362;2023-07-29T12:20:08;170529.34;;;31.79;21.93
41688;BME280;27371;42.686;23.362;2023-07-29T12:22:34;170505.00;;;31.70;21.91
41688;BME280;27371;42.686;23.362;2023-07-29T12:24:59;170487.47;;;31.63;22.02
41688;BME280;27371;42.686;23.362;2023-07-29T12:27:25;170505.00;;;31.70;22.51
41688;BME280;27371;42.686;23.362;2023-07-29T12:29:52;170532.00;;;31.80;22.58
41688;BME280;27371;42.686;23.362;2023-07-29T12:32:18;170567.19;;;31.93;22.39
41688;BME280;27371;42.686;23.362;2023-07-29T12:34:44;170588.78;;;32.02;22.49
41688;BME280;27371;42.686;23.362;2023-07-29T12:37:10;170604.97;;;32.08;22.19
41688;BME280;27371;42.686;23.362;2023-07-29T12:39:39;170611.72;;;32.10;21.88
41688;BME280;27371;42.686;23.362;2023-07-29T12:42:06;170613.06;;;32.11;21.55
41688;BME280;27371;42.686;23.362;2023-07-29T12:44:33;170580.69;;;31.99;22.00
41688;BME280;27371;42.686;23.362;2023-07-29T12:47:04;170521.25;;;31.76;21.87
41688;BME280;27371;42.686;23.362;2023-07-29T12:49:30;170495.56;;;31.66;22.34
41688;BME280;27371;42.686;23.362;2023-07-29T12:51:57;170532.00;;;31.80;22.21
41688;BME280;27371;42.686;23.362;2023-07-29T12:54:22;170492.88;;;31.65;22.30